Date,TemperatureHighF,TemperatureAvgF,TemperatureLowF,DewpointHighF,DewpointAvgF,DewpointLowF,HumidityHigh,HumidityAvg,HumidityLow,PressureMaxIn,PressureMinIn,WindSpeedMaxMPH,WindSpeedAvgMPH,GustSpeedMaxMPH,PrecipitationSumIn
2013-1-1,79.4,68.3,58.6,67.0,61.6,57.0,96,80,61,30.15,29.99,8,1,0,0.00
2013-1-2,80.3,68.3,59.8,68.0,62.4,58.0,97,82,58,30.02,29.92,2,0,0,0.00
2013-1-3,82.5,70.4,60.4,72.0,66.2,58.0,97,87,66,30.07,29.96,3,0,0,0.00
2013-1-4,77.1,69.7,65.4,72.0,67.1,63.0,97,91,81,30.18,30.04,4,0,0,0.00
2013-1-5,77.0,70.0,64.3,72.0,67.3,63.0,95,91,82,30.19,30.10,11,2,0,0.03
2013-1-6,80.2,71.8,63.1,74.0,68.5,62.0,99,90,72,30.13,29.99,5,0,0,0.11
2013-1-7,76.0,70.8,67.9,71.0,68.7,67.0,98,93,82,30.11,30.02,13,3,0,0.15
2013-1-8,76.7,71.9,69.2,75.0,70.4,68.0,98,95,88,30.16,30.04,6,1,0,0.35
2013-1-9,80.6,75.4,71.5,75.0,72.7,71.0,98,91,81,30.23,30.12,6,2,0,0.64
2013-1-10,79.7,74.7,70.5,72.0,69.3,67.0,92,84,69,30.24,30.13,10,2,0,0.00
2013-1-11,78.7,73.5,69.3,71.0,69.0,66.0,93,86,76,30.21,30.10,11,2,0,0.00
2013-1-12,80.1,72.5,65.2,70.0,67.1,63.0,97,83,67,30.13,30.04,7,1,0,0.00
2013-1-13,80.0,72.3,65.0,72.0,67.3,63.0,95,84,72,30.08,30.02,7,1,0,0.00
2013-1-14,79.7,71.5,64.9,71.0,67.6,62.0,97,87,74,30.12,30.06,6,1,0,0.00
2013-1-15,80.2,70.6,63.4,71.0,66.0,62.0,98,86,73,30.08,29.99,8,1,0,0.00
2013-1-16,82.1,70.1,59.2,71.0,65.7,58.0,99,86,66,30.05,29.95,6,0,0,0.00
2013-1-17,82.9,70.7,59.5,73.0,65.4,52.0,98,84,63,30.03,29.87,6,0,0,0.00
2013-1-18,72.2,61.8,49.6,64.0,54.7,44.0,90,78,62,30.18,30.03,11,2,0,0.01
2013-1-19,72.8,68.5,65.9,68.0,65.8,63.0,97,91,81,30.16,30.05,9,2,0,0.46
2013-1-20,76.3,69.2,64.6,70.0,66.7,64.0,98,92,78,30.09,29.97,9,1,0,0.01
2013-1-21,77.8,69.9,64.4,70.0,66.6,63.0,98,89,76,30.01,29.90,3,0,0,0.00
2013-1-22,72.5,64.5,59.6,64.0,60.8,57.0,94,88,70,30.09,29.95,13,1,0,0.00
2013-2-3,71.6,62.1,52.2,51.0,49.3,45.0,86,65,39,30.05,30.01,6,0,0,0.00
2013-2-4,74.4,58.1,45.0,56.0,46.3,42.0,93,69,32,30.08,29.96,4,0,0,0.00
2013-2-5,77.5,62.1,48.4,60.0,54.0,46.0,95,77,48,30.03,29.95,4,0,0,0.00
2013-2-6,79.0,68.2,57.5,69.0,62.2,56.0,97,82,63,30.05,29.95,6,1,0,0.00
2013-2-7,80.2,71.0,60.2,70.0,65.1,58.0,98,82,69,30.02,29.86,6,1,0,0.00
2013-2-8,83.3,70.9,64.1,68.0,65.2,62.0,95,83,52,29.98,29.83,5,0,0,0.00
2013-2-9,75.6,68.5,61.5,67.0,62.9,60.0,97,83,70,30.12,29.98,11,2,0,0.00
2013-2-10,77.5,71.1,67.6,65.0,62.6,61.0,83,75,62,30.21,30.10,11,3,0,0.00
2013-2-11,82.1,71.1,61.3,68.0,64.0,59.0,95,79,56,30.16,30.04,5,1,0,0.00
2013-2-12,84.2,72.5,59.6,71.0,65.8,58.0,98,81,50,30.05,29.89,5,0,0,0.00
2013-2-13,87.2,76.2,67.2,75.0,69.0,66.0,98,80,53,29.93,29.80,10,1,0,0.00
2013-2-14,72.1,66.3,62.2,71.0,64.9,61.0,98,95,82,29.96,29.84,6,1,0,1.35
2013-2-15,66.6,64.3,62.2,64.0,62.7,61.0,97,94,89,29.98,29.89,6,0,0,0.15
2013-2-16,72.0,63.2,51.4,65.0,56.2,44.0,97,79,53,30.02,29.82,4,0,0,0.00
2013-2-17,57.4,49.7,42.4,44.0,33.5,27.0,78,55,31,30.26,30.01,14,2,0,0.00
2013-2-18,70.7,57.1,44.2,55.0,44.8,29.0,82,64,51,30.27,30.16,10,1,0,0.00
2013-2-19,80.6,70.2,58.8,66.0,61.6,55.0,94,76,53,30.15,30.01,7,0,0,0.00
2013-2-20,77.6,67.8,58.4,67.0,63.6,57.0,98,87,69,30.06,29.95,6,1,0,0.00
2013-2-21,80.8,70.4,60.5,71.0,66.0,59.0,98,86,64,30.04,29.95,7,1,0,0.00
2013-2-22,84.1,73.2,63.9,74.0,68.7,63.0,99,86,70,30.04,29.95,6,1,0,0.00
2013-2-23,86.6,76.2,65.2,73.0,69.7,64.0,98,81,58,29.98,29.82,11,1,0,0.00
2013-2-24,86.8,76.5,70.3,75.0,70.7,66.0,97,84,53,29.93,29.83,7,0,0,0.00
2013-2-25,85.2,76.0,68.7,75.0,71.4,67.0,98,86,63,29.85,29.74,7,1,0,0.01
2013-2-26,86.4,78.0,71.6,75.0,71.5,70.0,96,81,61,29.81,29.70,11,2,0,0.01
2013-2-27,77.6,69.3,63.8,70.0,64.5,62.0,96,85,62,29.90,29.81,3,0,0,0.09
2013-2-28,72.3,62.6,56.2,62.0,55.2,51.0,95,78,47,29.95,29.82,2,0,0,0.01
2013-3-1,66.7,60.6,57.1,55.0,50.5,46.0,81,70,52,29.92,29.84,5,0,0,0.00
2013-3-2,67.5,56.3,47.2,46.0,42.6,38.0,76,61,42,29.97,29.90,5,0,0,0.00
2013-3-3,62.9,51.2,42.3,44.0,39.8,35.0,90,67,48,30.09,29.90,3,0,0,0.00
2013-3-4,63.8,52.1,41.6,46.0,39.3,34.0,87,64,36,30.16,30.06,9,1,0,0.00
2013-3-5,77.6,61.2,43.8,62.0,51.9,41.0,96,74,40,30.11,30.00,9,1,0,0.00
2013-3-6,75.5,63.2,50.9,65.0,49.3,31.0,95,66,26,30.04,29.89,5,0,0,0.00
2013-3-7,69.0,56.8,46.1,55.0,47.2,37.0,89,71,57,30.13,30.01,6,1,0,0.00
2013-3-8,72.6,59.5,48.3,57.0,51.0,46.0,96,75,48,30.15,30.06,9,1,0,0.00
2013-3-9,74.2,62.5,50.1,60.0,54.2,48.0,96,76,56,30.14,30.05,9,2,0,0.00
2013-3-10,76.4,67.8,59.2,63.0,58.9,55.0,86,74,57,30.10,30.02,11,2,0,0.00
2013-3-11,77.4,69.4,60.6,65.0,61.2,57.0,89,76,62,30.06,29.88,5,1,0,0.00
2013-3-12,80.7,71.6,62.5,70.0,65.5,60.0,95,81,66,29.93,29.83,10,1,0,0.00
2013-3-13,73.1,63.2,54.7,63.0,54.7,49.0,92,75,47,30.07,29.93,12,2,0,0.00
2013-3-14,68.6,58.0,50.4,51.0,48.8,43.0,90,73,47,30.16,30.05,15,3,0,0.00
2013-3-15,69.8,58.5,48.5,55.0,50.1,44.0,90,75,54,30.20,30.10,11,1,0,0.00
2013-3-16,77.0,61.8,45.6,58.0,51.6,44.0,97,72,43,30.13,30.01,10,1,0,0.00
2013-3-17,77.3,65.7,51.6,63.0,57.3,49.0,97,76,57,30.09,29.96,9,1,0,0.00
2013-3-18,81.6,70.6,64.2,71.0,65.7,60.0,95,85,65,30.02,29.88,11,1,0,0.25
2013-3-19,77.9,70.3,65.2,70.0,66.3,63.0,98,88,71,29.95,29.82,4,0,0,0.01
2013-3-20,81.3,68.0,61.2,71.0,62.9,60.0,98,85,63,29.90,29.73,2,0,0,0.01
2013-3-21,74.7,64.0,54.3,62.0,52.5,41.0,94,69,31,29.89,29.77,7,1,0,0.01
2013-3-22,78.3,63.5,48.9,67.0,56.8,47.0,96,80,54,29.95,29.84,6,1,0,0.09
2013-3-23,88.1,76.1,66.3,76.0,69.3,65.0,98,81,56,29.92,29.72,6,0,0,0.09
2013-3-24,87.9,76.8,68.7,76.0,70.7,67.0,96,82,60,29.81,29.59,12,2,0,0.18
2013-3-25,79.0,70.8,58.7,72.0,58.0,38.0,98,68,33,29.93,29.67,3,0,0,0.01
2013-3-26,68.0,58.0,49.6,45.0,39.8,33.0,73,53,34,30.15,29.93,3,0,0,0.00
2013-3-27,68.2,55.1,44.9,49.0,42.7,36.0,83,64,41,30.21,30.12,10,1,0,0.00
2013-3-28,73.5,58.6,46.4,62.0,47.8,43.0,92,70,46,30.22,30.12,11,2,0,0.00
2013-3-29,75.4,60.6,48.5,55.0,51.1,46.0,94,73,47,30.24,30.15,9,1,0,0.00
2013-3-30,76.8,64.2,51.0,59.0,53.8,49.0,97,71,49,30.20,30.10,13,2,0,0.00
2013-3-31,82.9,68.8,54.1,68.0,60.7,52.0,96,77,53,30.12,29.96,13,2,0,0.00
2013-4-1,88.5,73.9,63.0,72.0,65.4,61.0,98,77,46,29.98,29.87,5,1,0,0.00
2013-4-2,84.3,72.5,63.4,71.0,66.1,62.0,97,82,54,30.01,29.92,9,1,0,0.00
2013-4-3,84.2,76.1,69.6,73.0,69.2,67.0,92,80,62,30.01,29.92,13,3,0,0.00
2013-4-4,83.8,73.5,68.0,73.0,69.6,67.0,96,88,68,29.99,29.85,5,1,0,1.04
2013-4-5,74.8,69.2,66.2,70.0,66.8,63.0,97,92,83,29.90,29.73,11,2,0,0.12
2013-4-6,77.9,68.6,57.7,68.0,62.3,56.0,94,81,64,30.04,29.87,14,4,0,0.00
2013-4-7,78.9,72.2,63.9,67.0,63.7,60.0,93,75,63,30.09,29.98,11,3,0,0.00
2013-4-8,82.5,72.0,59.5,68.0,63.8,58.0,96,76,57,30.07,30.00,9,1,0,0.00
2013-4-9,81.4,74.7,70.8,72.0,68.0,66.0,93,80,69,30.10,30.00,13,4,0,0.02
2013-4-10,82.9,76.3,70.3,75.0,70.8,67.0,92,83,73,30.05,29.94,14,4,0,0.00
2013-4-11,84.7,78.1,72.8,75.0,72.4,70.0,92,83,69,29.96,29.82,13,5,0,0.00
2013-4-12,90.0,79.7,75.0,78.0,73.7,69.0,95,83,61,29.86,29.78,11,2,0,0.00
2013-4-13,92.0,78.5,72.4,77.0,73.2,70.0,97,85,54,29.90,29.82,9,1,0,0.01
2013-4-14,89.3,79.4,70.9,78.0,74.0,70.0,98,84,64,29.90,29.81,11,2,0,0.00
2013-4-15,91.9,76.5,66.7,78.0,71.5,64.0,93,85,61,29.99,29.87,11,2,0,0.22
2013-4-16,85.8,77.3,69.9,77.0,72.6,69.0,98,85,70,30.07,29.96,10,2,0,0.00
2013-4-17,85.8,77.2,71.4,72.0,69.2,68.0,89,77,60,30.06,29.97,11,2,0,0.00
2013-4-18,87.4,77.6,68.6,76.0,71.2,66.0,96,81,65,29.99,29.91,11,3,0,0.00
2013-4-19,90.5,80.7,73.9,76.0,73.0,71.0,93,78,59,29.98,29.88,10,3,0,0.00
2013-4-20,89.3,76.0,71.2,77.0,71.6,69.0,96,87,60,30.04,29.90,12,2,0,0.00
2013-4-21,85.9,76.2,68.9,78.0,71.7,68.0,97,86,70,30.04,29.92,11,2,0,0.06
2013-4-22,80.8,73.7,70.8,74.0,70.4,68.0,96,89,77,29.99,29.89,7,2,0,0.40
2013-4-23,81.9,75.4,67.6,71.0,67.3,63.0,94,77,62,30.04,29.90,15,5,0,0.00
2013-4-24,84.6,76.1,67.8,71.0,65.6,63.0,88,70,59,30.08,29.98,10,3,0,0.00
2013-4-25,85.1,76.3,67.1,70.0,65.9,63.0,88,71,54,30.14,30.02,7,2,0,0.00
2013-4-26,85.9,75.4,63.9,72.0,67.2,62.0,95,76,59,30.16,30.07,7,2,0,0.00
2013-4-27,83.1,76.8,72.8,71.0,67.1,64.0,80,72,63,30.15,30.04,12,5,0,0.00
2013-4-28,83.6,76.9,71.2,70.0,66.2,64.0,82,70,57,30.07,29.94,11,5,0,0.00
2013-4-29,84.7,76.1,68.0,74.0,69.2,64.0,92,80,63,29.97,29.86,15,3,0,0.16
2013-4-30,84.2,73.8,69.3,77.0,70.7,67.0,97,90,75,29.94,29.87,10,1,0,0.21
2013-5-1,83.7,73.4,68.4,76.0,70.3,67.0,98,90,74,29.95,29.87,11,2,0,0.41
2013-5-2,76.4,72.0,69.9,73.0,70.3,68.0,97,94,85,29.89,29.75,9,2,0,0.53
2013-5-3,87.7,76.3,68.5,76.0,70.6,66.0,96,83,61,29.77,29.59,10,2,0,0.06
2013-5-4,85.8,74.8,65.3,74.0,69.2,64.0,98,84,64,29.73,29.62,3,0,0,0.00
2013-5-5,83.1,72.7,62.5,69.0,61.8,52.0,96,71,39,29.87,29.68,7,1,0,0.00
2013-5-6,84.3,70.4,56.3,69.0,61.0,53.0,96,73,56,29.93,29.85,3,0,0,0.00
2013-5-7,85.4,71.4,58.4,66.0,59.5,55.0,91,68,46,29.99,29.90,5,1,0,0.00
2013-5-8,87.0,72.9,57.9,67.0,60.7,55.0,95,68,36,30.06,29.97,5,0,0,0.00
2013-5-9,86.0,75.9,65.3,74.0,68.8,61.0,90,79,64,30.07,30.01,10,1,0,0.00
2013-5-10,88.0,77.3,71.2,77.0,72.5,69.0,97,86,70,30.07,29.99,9,1,0,0.00
2013-5-11,93.5,78.8,70.9,77.0,72.2,69.0,97,82,50,30.02,29.88,14,1,0,0.55
2013-5-12,90.8,77.8,69.5,79.0,72.9,69.0,98,86,62,29.98,29.87,10,1,0,0.55
2013-5-13,84.6,75.6,68.6,75.0,69.6,66.0,97,82,66,30.03,29.92,13,1,0,0.08
2013-5-14,81.8,75.1,69.9,66.0,61.5,59.0,79,63,50,30.12,30.02,11,3,0,0.00
2013-5-15,83.5,74.0,63.0,67.0,63.5,59.0,94,71,54,30.14,30.04,10,3,0,0.00
2013-5-16,84.8,74.6,62.4,69.0,65.0,60.0,97,73,56,30.06,29.98,9,2,0,0.00
2013-5-17,86.6,77.0,67.9,75.0,69.6,64.0,94,78,64,30.03,29.95,12,3,0,0.00
2013-5-18,88.0,78.7,69.5,76.0,72.1,68.0,97,80,65,30.04,29.98,11,3,0,0.00
2013-5-19,88.0,78.0,69.9,75.0,71.2,68.0,97,80,61,30.04,29.95,9,2,0,0.00
2013-5-20,82.6,75.3,70.9,76.0,71.8,69.0,97,89,73,30.02,29.92,7,2,0,0.27
2013-5-21,86.8,76.3,68.3,78.0,71.8,67.0,98,86,68,29.98,29.88,12,3,0,0.14
2013-5-22,86.3,76.0,70.1,78.0,72.4,68.0,98,89,69,29.90,29.84,10,2,0,0.37
2013-5-23,89.5,79.0,70.1,79.0,73.7,69.0,98,84,64,29.93,29.84,7,1,0,0.00
2013-5-24,90.9,81.0,70.7,79.0,72.0,67.0,96,76,50,30.01,29.89,7,2,0,0.00
2013-5-25,86.9,78.4,72.8,74.0,70.2,66.0,95,77,59,30.12,29.99,12,4,0,0.23
2013-5-26,84.4,76.9,68.0,73.0,67.4,62.0,89,73,64,30.13,30.06,12,3,0,0.00
2013-5-27,85.6,77.7,72.4,74.0,69.5,64.0,83,76,68,30.10,30.03,11,5,0,0.00
2013-5-28,83.2,77.8,73.3,76.0,73.1,71.0,96,85,76,30.07,30.00,14,6,0,0.59
2013-5-29,81.6,76.9,72.2,77.0,73.6,70.0,97,89,82,30.06,29.98,16,5,0,1.01
2013-5-30,81.5,77.3,71.9,76.0,72.8,70.0,97,86,77,30.04,29.96,14,6,0,0.84
2013-5-31,83.5,79.1,74.8,76.0,73.5,71.0,92,83,78,30.02,29.96,16,7,0,0.04
2013-6-1,86.0,79.3,75.5,78.0,75.1,73.0,96,87,74,29.98,29.91,13,4,0,0.09
2013-6-2,89.2,79.6,73.7,80.0,75.1,72.0,97,86,68,29.93,29.85,10,1,0,0.00
2013-6-3,90.2,78.6,72.9,79.0,74.8,71.0,97,88,65,29.96,29.84,9,0,0,0.04
2013-6-4,84.3,78.4,74.3,77.0,74.7,71.0,98,88,65,29.99,29.89,4,0,0,0.05
2013-6-5,84.5,79.8,77.0,79.0,76.8,75.0,95,90,79,29.95,29.85,7,2,0,0.04
2013-6-6,84.2,77.4,73.5,81.0,75.6,72.0,97,94,87,29.85,29.70,10,3,0,1.85
2013-6-7,89.9,78.5,73.2,82.0,75.5,72.0,98,91,72,29.92,29.76,9,1,0,0.51
2013-6-8,85.6,77.4,73.9,80.0,75.6,73.0,98,94,80,30.05,29.90,5,0,0,0.38
2013-6-9,88.3,80.8,74.7,79.0,76.3,74.0,99,87,71,30.05,29.97,11,3,0,0.12
2013-6-10,89.4,82.0,76.9,81.0,77.1,74.0,94,85,71,30.04,29.96,10,3,0,0.00
2013-6-11,90.3,80.7,77.0,82.0,77.2,75.0,97,89,73,30.02,29.96,6,0,0,0.06
2013-6-12,90.0,81.0,75.7,81.0,77.1,74.0,98,88,71,30.01,29.96,9,1,0,0.01
2013-6-13,91.9,80.1,73.1,79.0,74.7,72.0,98,84,61,29.98,29.87,9,0,0,0.00
2013-6-14,94.0,81.5,73.4,81.0,75.6,71.0,97,83,58,29.90,29.79,6,0,0,0.39
2013-6-15,91.4,81.8,73.1,81.0,76.1,72.0,97,83,66,29.99,29.86,6,2,0,0.00
2013-6-16,91.2,83.7,78.6,81.0,77.3,76.0,92,81,66,30.02,29.96,12,3,0,0.00
2013-6-17,92.8,83.0,75.4,82.0,77.1,74.0,97,83,63,30.01,29.94,12,2,0,0.00
2013-6-18,92.6,83.7,75.4,81.0,76.7,74.0,97,80,64,30.01,29.91,10,2,0,0.00
2013-6-19,91.9,82.5,74.9,81.0,76.2,72.0,92,82,64,29.99,29.91,9,1,0,0.00
2013-6-20,92.6,78.6,72.4,80.0,74.4,70.0,98,88,61,30.02,29.96,10,1,0,1.60
2013-6-21,89.0,78.6,72.4,80.0,74.9,72.0,99,89,66,30.06,29.97,9,1,0,0.00
2013-6-22,90.3,81.5,72.8,79.0,75.2,72.0,98,82,63,30.04,29.98,9,2,0,0.00
2013-6-23,87.4,80.2,75.7,82.0,75.3,73.0,95,85,71,30.07,29.99,7,2,0,0.48
2013-6-24,89.0,81.7,74.5,80.0,75.6,72.0,97,82,65,30.11,30.02,9,3,0,0.05
2013-6-25,89.4,81.3,75.1,82.0,76.8,73.0,98,87,72,30.08,29.98,9,2,0,0.04
2013-6-26,90.5,81.1,76.8,81.0,76.6,75.0,95,86,66,30.02,29.95,10,1,0,0.01
2013-6-27,90.9,81.1,74.0,82.0,76.4,73.0,98,86,69,29.99,29.89,6,1,0,0.01
2013-6-28,94.2,82.3,73.7,80.0,75.1,72.0,98,80,57,29.93,29.78,7,0,0,0.00
2013-6-29,94.4,81.9,74.7,80.0,75.2,72.0,96,81,53,29.85,29.74,9,1,0,0.03
2013-6-30,91.6,78.8,74.9,81.0,75.7,73.0,98,90,65,29.88,29.78,9,1,0,0.32
2013-7-1,90.8,79.8,75.1,80.0,75.7,73.0,98,88,65,29.98,29.84,12,2,0,0.34
2013-7-2,87.3,79.6,74.7,82.0,76.8,73.0,96,91,71,30.05,29.92,6,0,0,0.35
2013-7-3,88.2,79.2,74.7,79.0,76.0,74.0,97,90,72,30.06,29.99,11,2,0,0.00
2013-7-10,86.4,80.5,76.7,79.0,75.9,75.0,94,86,73,30.01,29.93,9,2,0,0.15
2013-7-11,91.0,78.5,72.9,81.0,75.3,71.0,98,90,64,29.98,29.89,12,0,0,2.39
2013-7-12,91.1,77.8,71.9,81.0,74.5,70.0,99,91,65,29.90,29.82,10,1,0,0.36
2013-7-13,86.9,76.5,72.6,81.0,74.8,72.0,99,94,79,29.96,29.86,10,1,0,0.24
2013-7-14,85.5,74.9,72.1,79.0,73.4,71.0,99,95,76,30.03,29.92,5,0,0,2.04
2013-7-15,87.8,77.9,71.4,81.0,75.0,71.0,100,91,73,30.05,29.96,6,1,0,0.09
2013-7-16,83.4,77.8,73.9,78.0,74.9,72.0,97,90,78,30.10,30.00,9,2,0,0.27
2013-7-17,85.4,77.8,72.8,78.0,74.9,71.0,98,91,74,30.07,29.99,15,2,0,0.40
2013-7-18,87.3,77.9,71.8,79.0,74.7,71.0,98,90,73,30.07,29.99,9,1,0,0.36
2013-7-19,87.2,80.1,72.0,80.0,76.4,71.0,99,89,74,30.07,29.98,10,2,0,0.12
2013-7-20,88.8,79.5,74.6,82.0,77.2,72.0,98,92,77,30.05,29.98,7,1,0,0.07
2013-7-21,90.5,78.6,71.3,82.0,75.8,70.0,99,91,69,30.09,29.97,12,1,0,0.44
2013-7-22,92.5,80.5,72.1,83.0,76.3,72.0,99,87,64,30.08,30.00,7,0,0,0.44
2013-7-23,93.1,82.1,75.0,82.0,76.9,74.0,98,85,61,30.04,29.90,10,0,0,0.41
2013-7-24,90.3,80.8,73.7,81.0,76.6,73.0,99,88,67,29.96,29.84,9,0,0,0.28
2013-7-25,90.0,81.1,75.5,83.0,77.4,74.0,98,89,76,29.95,29.84,5,0,0,0.15
2013-7-26,90.8,80.9,75.3,82.0,77.4,74.0,98,89,71,29.94,29.89,8,0,0,0.20
2013-7-27,90.9,81.1,74.6,83.0,76.8,73.0,98,87,69,29.93,29.86,7,1,0,0.00
2013-7-28,87.4,78.4,73.3,82.0,76.0,72.0,99,92,79,30.01,29.88,8,1,0,1.69
2013-7-29,90.6,80.7,74.0,81.0,76.7,73.0,99,88,70,30.08,29.96,7,1,0,0.01
2013-7-30,90.5,82.4,76.2,81.0,77.9,75.0,99,87,71,30.10,30.03,7,2,0,0.00
2013-7-31,90.5,83.6,76.6,81.0,77.5,74.0,98,83,61,30.06,29.95,12,3,0,0.00
2013-8-1,90.6,82.0,75.2,80.0,76.3,74.0,98,83,67,30.01,29.89,9,2,0,0.00
2013-8-2,90.6,79.1,74.7,80.0,75.7,73.0,98,89,70,29.97,29.86,11,1,0,0.01
2013-8-3,80.8,77.9,75.8,79.0,75.9,74.0,96,93,88,30.05,29.96,4,0,0,0.14
2013-8-4,92.6,81.1,74.0,85.0,77.5,73.0,99,89,71,30.04,29.92,3,0,0,0.04
2013-8-5,93.6,80.1,73.5,83.0,76.5,73.0,99,89,64,29.96,29.87,11,0,0,0.83
2013-8-6,90.4,81.1,72.9,83.0,77.6,73.0,99,89,74,29.91,29.84,6,1,0,0.07
2013-8-7,88.8,82.2,77.4,84.0,78.1,76.0,99,88,74,29.92,29.84,9,1,0,0.34
2013-8-8,90.1,84.0,78.5,82.0,77.9,76.0,92,82,67,29.96,29.88,10,3,0,0.01
2013-8-9,89.8,83.2,78.7,80.0,76.8,74.0,92,81,68,30.01,29.89,11,3,0,0.01
2013-8-10,91.4,83.3,76.4,81.0,77.7,75.0,97,84,68,30.06,29.98,12,3,0,0.01
2013-8-11,90.8,83.0,75.8,81.0,77.6,75.0,98,84,69,30.08,30.01,6,2,0,0.00
2013-8-12,91.6,82.9,74.9,82.0,77.4,74.0,99,84,64,30.05,29.96,10,1,0,0.00
2013-8-13,91.8,84.0,76.2,82.0,77.8,75.0,98,82,67,29.99,29.89,9,2,0,0.00
2013-8-14,92.3,83.2,74.8,82.0,76.4,73.0,97,81,61,29.96,29.86,7,1,0,0.00
2013-8-15,89.5,80.1,75.3,80.0,76.5,74.0,97,89,68,29.99,29.89,6,1,0,0.41
2013-8-16,90.1,82.2,75.2,82.0,78.2,75.0,99,88,73,29.99,29.91,9,2,0,0.04
2013-8-17,91.2,84.6,79.1,82.0,79.2,78.0,96,84,68,30.02,29.94,11,3,0,0.00
2013-8-18,90.2,84.4,80.1,81.0,78.6,76.0,93,83,69,30.03,29.94,10,3,0,0.02
2013-8-19,91.3,84.1,77.9,81.0,78.1,75.0,97,82,66,30.02,29.90,10,3,0,0.00
2013-8-20,91.4,84.2,75.3,81.0,78.1,73.0,93,82,63,30.02,29.93,14,3,0,0.43
2013-8-21,89.7,82.0,75.1,83.0,78.3,73.0,97,89,76,30.03,29.95,12,3,0,0.50
2013-8-22,90.0,83.0,75.1,82.0,78.4,74.0,99,86,70,30.01,29.90,13,3,0,0.25
2013-8-23,90.6,82.5,76.6,82.0,78.2,75.0,99,87,71,29.95,29.88,10,1,0,0.02
2013-8-24,91.2,81.8,74.7,82.0,77.2,73.0,98,87,70,30.03,29.92,10,1,0,0.92
2013-8-25,87.6,79.9,74.7,81.0,76.4,74.0,99,89,71,30.09,29.98,9,1,0,0.92
2013-8-26,89.7,81.3,76.5,81.0,76.5,73.0,97,86,71,30.05,29.95,10,1,0,0.01
2013-8-27,86.4,79.5,74.2,79.0,75.4,73.0,98,87,74,29.98,29.91,9,1,0,0.00
2013-8-28,87.3,80.6,74.2,80.0,75.4,73.0,98,84,68,29.99,29.90,6,1,0,0.02
2013-8-29,90.8,81.0,74.1,81.0,76.2,73.0,98,86,65,29.97,29.87,6,1,0,0.10
2013-8-30,91.3,81.2,75.2,84.0,76.7,72.0,98,86,67,29.93,29.83,9,1,0,0.03
2013-8-31,92.8,79.8,72.9,81.0,75.0,71.0,96,86,59,29.92,29.84,13,1,0,0.06
2013-9-1,90.8,79.2,72.0,82.0,75.1,71.0,99,88,68,29.94,29.86,7,1,0,0.07
2013-9-2,92.7,79.6,73.3,82.0,75.9,73.0,99,89,66,29.96,29.87,5,0,0,0.01
2013-9-3,92.0,81.3,72.7,81.0,76.2,72.0,98,85,64,29.96,29.87,6,0,0,0.01
2013-9-4,91.8,82.4,75.6,82.0,78.0,74.0,98,87,69,30.01,29.90,9,1,0,0.00
2013-9-5,90.8,83.8,79.0,82.0,78.7,76.0,96,85,62,30.01,29.93,7,1,0,0.04
2013-9-6,94.0,83.7,77.9,81.0,78.4,76.0,97,84,62,29.98,29.88,8,1,0,0.00
2013-9-7,90.4,80.2,74.3,80.0,75.8,73.0,95,86,69,29.93,29.85,8,0,0,0.01
2013-9-8,89.9,80.5,72.8,79.0,75.2,72.0,98,84,65,29.89,29.80,7,1,0,0.00
2013-9-9,90.5,81.7,74.5,79.0,75.7,73.0,98,83,66,29.94,29.84,9,1,0,0.00
2013-9-10,89.5,80.8,76.2,80.0,76.3,73.0,96,86,71,29.99,29.90,13,2,0,0.22
2013-9-11,87.3,80.9,74.1,79.0,76.2,72.0,98,86,72,30.02,29.92,10,1,0,0.28
2013-9-12,88.2,77.8,73.4,80.0,74.9,72.0,98,91,72,29.96,29.84,8,0,0,0.35
2013-9-13,89.0,79.6,72.2,79.0,75.4,72.0,99,88,70,29.86,29.75,5,1,0,0.00
2013-9-14,92.8,82.0,74.6,80.0,76.7,74.0,98,85,63,29.91,29.76,9,1,0,0.03
2013-9-15,88.4,80.9,75.0,82.0,77.3,74.0,98,89,74,30.01,29.87,9,2,0,0.05
2013-9-16,85.5,78.7,73.9,80.0,76.4,73.0,98,93,82,30.02,29.91,9,1,0,0.45
2013-9-17,83.0,77.9,74.9,79.0,76.1,73.0,98,94,84,29.98,29.88,10,1,0,0.38
2013-9-18,86.6,79.6,74.2,80.0,76.2,73.0,99,89,74,29.95,29.87,10,2,0,0.31
2013-9-19,85.3,79.0,74.6,79.0,75.3,72.0,97,88,79,29.95,29.87,10,2,0,0.11
2013-9-20,85.8,79.7,72.3,76.0,72.0,70.0,96,78,63,29.95,29.84,9,2,0,0.00
2013-9-21,87.9,78.1,70.1,76.0,71.9,69.0,98,82,61,29.87,29.72,6,0,0,0.00
2013-9-22,90.1,80.4,73.1,81.0,75.5,71.0,97,85,69,29.80,29.69,5,0,0,0.00
2013-9-23,88.5,78.4,75.2,80.0,76.1,74.0,99,93,71,29.92,29.78,5,0,0,0.97
2013-9-24,89.7,78.0,74.5,83.0,76.5,74.0,99,95,76,29.90,29.80,7,0,0,0.05
2013-9-25,87.3,78.3,73.5,78.0,74.9,73.0,99,89,71,29.82,29.70,10,0,0,0.01
2013-9-26,90.8,80.5,74.2,83.0,77.2,73.0,99,90,70,29.78,29.70,6,0,0,0.00
2013-9-27,87.8,78.7,71.7,79.0,74.2,71.0,98,86,67,29.86,29.75,10,2,0,0.02
2013-9-28,86.6,78.9,73.2,77.0,73.8,70.0,97,84,71,29.90,29.82,9,2,0,0.03
2013-9-29,88.3,79.2,71.6,76.0,72.6,70.0,96,81,62,29.90,29.83,6,1,0,0.00
2013-9-30,88.0,78.6,70.2,76.0,72.7,70.0,99,83,65,29.95,29.84,6,1,0,0.00
2013-10-1,87.5,79.8,71.7,77.0,73.6,71.0,98,82,67,29.98,29.90,8,1,0,0.00
2013-10-2,86.5,80.8,77.3,77.0,73.6,72.0,88,79,70,29.98,29.92,7,2,0,0.00
2013-10-3,87.3,80.0,75.1,77.0,73.8,72.0,94,82,65,30.00,29.90,6,1,0,0.00
2013-10-4,87.9,79.4,72.6,76.0,73.3,71.0,98,82,64,30.00,29.93,9,1,0,0.00
2013-10-5,87.4,78.6,70.6,77.0,73.7,70.0,99,85,67,29.98,29.88,7,1,0,0.07
2013-10-6,88.0,80.2,73.4,79.0,75.2,72.0,97,85,68,29.90,29.81,7,1,0,0.00
2013-10-7,88.6,77.0,72.6,78.0,73.5,71.0,98,90,64,29.82,29.75,7,1,0,0.37
2013-10-8,88.8,78.6,71.7,80.0,74.5,70.0,99,88,70,29.86,29.76,4,0,0,0.00
2013-10-9,84.9,76.9,71.0,77.0,73.7,69.0,98,90,77,29.93,29.82,14,3,0,0.03
2013-10-10,85.6,76.6,69.7,76.0,71.4,69.0,97,84,68,29.96,29.89,13,2,0,0.00
2013-10-11,85.5,75.4,66.9,74.0,68.9,66.0,98,81,57,29.96,29.88,5,1,0,0.00
2013-10-12,87.9,75.7,66.9,73.0,69.4,66.0,97,82,54,29.96,29.89,4,0,0,0.00
2013-10-13,85.4,75.9,68.0,73.0,68.3,66.0,97,79,53,30.00,29.91,8,1,0,0.00
2013-10-14,86.1,76.1,69.2,75.0,70.7,67.0,95,84,63,29.95,29.85,10,2,0,0.00
2013-10-15,85.6,76.3,70.4,76.0,72.0,69.0,97,87,64,29.90,29.81,6,0,0,0.01
2013-10-16,87.0,77.5,70.4,77.0,73.0,70.0,99,87,65,29.89,29.82,5,0,0,0.00
2013-10-17,87.1,78.1,70.1,76.0,73.2,70.0,99,86,65,29.90,29.82,5,0,0,0.02
2013-10-18,87.9,78.4,70.6,78.0,73.1,70.0,99,85,68,29.92,29.84,9,1,0,0.00
2013-10-19,88.0,79.6,72.0,79.0,74.6,71.0,98,85,71,29.89,29.80,11,2,0,0.00
2013-10-20,88.3,79.5,73.4,81.0,76.1,73.0,99,90,72,29.89,29.80,7,1,0,0.00
2013-10-21,89.4,79.7,73.8,80.0,76.4,73.0,98,89,69,29.93,29.84,6,1,0,0.04
2013-10-22,91.0,81.9,76.4,79.0,76.4,75.0,96,84,65,29.89,29.75,6,0,0,0.00
2013-10-23,86.5,77.4,72.5,77.0,73.1,69.0,98,87,70,29.89,29.73,9,1,0,0.01
2013-10-24,80.8,73.4,66.0,70.0,64.6,60.0,88,74,63,30.04,29.89,14,2,0,0.00
2013-10-25,81.2,72.2,65.3,70.0,65.3,62.0,93,80,62,30.11,30.02,13,3,0,0.00
2013-10-26,82.5,71.3,62.9,69.0,63.7,60.0,94,78,56,30.10,30.00,5,1,0,0.00
2013-10-27,80.7,69.9,61.0,69.0,64.2,59.0,96,83,64,30.03,29.97,8,1,0,0.00
2013-10-28,84.3,73.0,64.8,72.0,66.9,64.0,97,83,56,30.09,29.99,9,1,0,0.00
2013-10-29,84.3,75.0,66.4,74.0,68.7,65.0,96,82,63,30.12,30.03,14,2,0,0.00
2013-10-30,83.4,77.8,70.5,72.0,69.4,67.0,92,75,65,30.13,30.03,10,2,0,0.04
2013-10-31,83.9,78.3,71.3,74.0,70.8,67.0,94,78,68,30.05,29.93,10,3,0,0.00
2013-11-1,89.2,78.4,70.6,77.0,73.3,70.0,99,85,61,29.95,29.81,8,1,0,0.01
2013-11-2,86.8,76.0,67.5,76.0,71.1,64.0,98,85,62,29.87,29.74,14,1,0,0.00
2013-11-3,78.9,72.3,66.4,67.0,61.9,58.0,90,71,54,29.98,29.84,11,4,0,0.00
2013-11-4,80.3,75.8,71.9,68.0,64.0,57.0,78,67,58,30.03,29.96,17,6,0,0.00
2013-11-5,82.0,77.4,75.1,74.0,70.1,66.0,89,78,71,30.04,29.98,16,5,0,0.02
2013-11-6,82.6,74.4,71.0,73.0,71.1,70.0,98,90,69,29.97,29.93,6,0,0,0.03
2013-11-7,83.1,75.1,69.8,76.0,71.5,68.0,99,89,70,29.95,29.87,6,1,0,0.01
2013-11-8,77.6,73.8,69.2,73.0,70.6,68.0,97,90,84,30.00,29.88,17,5,0,0.03
2013-11-9,78.4,76.2,74.3,72.0,70.9,70.0,89,83,79,30.07,29.97,12,3,0,0.02
2013-11-10,83.3,76.1,69.4,75.0,71.2,68.0,96,85,73,30.07,29.99,7,1,0,0.01
2013-11-11,83.7,74.4,68.1,74.0,69.8,67.0,99,86,68,30.07,29.99,6,1,0,0.00
2013-11-12,83.1,73.7,66.7,73.0,69.4,66.0,98,87,69,30.02,29.91,7,1,0,0.00
2013-11-13,74.2,70.2,67.7,68.0,62.4,55.0,90,77,62,30.18,29.95,22,8,0,0.01
2013-11-14,75.7,71.5,67.9,64.0,60.2,55.0,76,68,56,30.19,30.09,12,5,0,0.00
2013-11-15,79.1,74.7,70.7,69.0,65.7,62.0,78,73,70,30.10,29.99,11,4,0,0.00
2013-11-16,82.5,76.8,72.5,73.0,70.2,67.0,89,80,71,30.04,29.96,9,2,0,0.00
2013-11-17,82.9,77.0,70.5,75.0,72.0,69.0,97,85,75,30.01,29.93,10,3,0,0.00
2013-11-18,86.6,75.0,69.2,77.0,72.3,69.0,99,92,72,29.95,29.85,7,0,0,0.12
2013-11-19,81.9,74.1,68.4,75.0,71.4,67.0,98,91,79,29.87,29.80,7,1,0,0.00
2013-11-20,84.4,73.8,66.5,77.0,71.4,65.0,99,92,75,30.01,29.85,17,2,0,1.56
2013-11-21,81.8,76.2,72.9,75.0,72.6,71.0,98,89,80,30.09,29.99,12,5,0,0.30
2013-11-22,81.0,76.5,73.4,74.0,70.2,67.0,91,81,73,30.10,30.02,10,4,0,0.01
2013-11-23,81.7,74.7,67.2,73.0,69.7,67.0,98,84,71,30.02,29.92,6,1,0,0.00
2013-11-24,78.0,70.6,65.4,71.0,66.9,62.0,99,88,76,30.11,29.92,18,5,0,0.07
2013-11-25,73.0,71.1,69.0,68.0,64.4,60.0,93,80,69,30.15,30.01,16,6,0,0.08
2013-11-26,82.0,76.9,73.0,76.0,72.6,68.0,95,87,78,30.01,29.73,14,4,0,0.04
2013-11-27,76.2,69.2,54.0,74.0,64.9,51.0,97,87,68,30.07,29.69,16,2,0,0.20
2013-11-28,71.4,59.2,44.6,62.0,53.3,42.0,92,82,65,30.21,30.07,11,2,0,0.00
2013-11-29,75.7,66.3,56.8,65.0,60.6,55.0,98,83,66,30.22,30.15,13,3,0,0.02
2013-11-30,77.1,67.9,60.0,69.0,63.9,59.0,98,87,70,30.18,30.07,12,2,0,0.16
2013-12-1,71.2,69.0,66.3,70.0,67.8,66.0,98,96,86,30.06,29.89,6,1,0,0.99
2013-12-2,69.7,65.7,60.5,67.0,64.2,59.0,99,95,88,29.89,29.75,5,0,0,0.02
2013-12-3,74.4,67.3,61.2,67.0,63.7,60.0,98,88,68,29.93,29.83,3,0,0,0.00
2013-12-4,82.1,70.4,61.4,71.0,65.9,60.0,98,86,63,30.03,29.92,7,0,0,0.00
2013-12-5,81.1,70.7,62.5,74.0,68.0,61.0,98,91,77,30.10,30.02,7,1,0,0.08
2013-12-6,83.3,73.0,65.3,75.0,69.4,64.0,97,89,66,30.12,30.03,5,1,0,0.07
2013-12-7,78.9,70.0,63.2,72.0,67.7,62.0,98,92,77,30.18,30.09,4,0,0,0.01
2013-12-8,80.0,73.6,67.3,73.0,70.0,66.0,97,88,78,30.15,30.06,7,2,0,0.04
2013-12-9,83.7,72.7,64.8,73.0,67.1,63.0,98,84,54,30.12,30.03,13,2,0,0.00
2013-12-10,84.4,71.9,63.2,74.0,67.5,62.0,98,87,59,30.10,30.01,7,0,0,0.00
2013-12-11,83.0,73.1,66.7,75.0,69.8,66.0,98,90,69,30.15,30.06,7,1,0,0.01
2013-12-12,72.9,69.8,67.0,70.0,65.1,58.0,98,86,65,30.18,30.08,16,4,0,0.00
2013-12-13,75.7,71.4,68.3,66.0,62.5,58.0,81,73,66,30.16,30.05,10,4,0,0.00
2013-12-14,82.1,75.6,70.9,75.0,70.5,66.0,93,84,72,30.05,29.91,13,4,0,0.00
2013-12-15,77.1,72.2,67.7,75.0,70.3,65.0,96,93,89,30.01,29.86,6,1,0,0.03
2013-12-16,71.0,64.1,55.6,65.0,59.8,53.0,92,86,74,30.11,29.99,11,3,0,0.00
2013-12-17,76.1,64.2,54.8,65.0,58.6,53.0,96,83,59,30.13,30.04,6,1,0,0.00
2013-12-18,72.2,62.1,53.9,61.0,56.3,51.0,96,82,54,30.19,30.09,7,1,0,0.00
2013-12-19,76.8,64.1,54.0,64.0,58.2,52.0,95,82,62,30.19,30.10,9,1,0,0.00
2013-12-20,79.3,69.8,60.4,69.0,64.9,59.0,97,85,67,30.14,30.04,9,2,0,0.00
2013-12-21,82.5,74.2,67.2,75.0,70.6,66.0,97,88,75,30.09,29.99,12,2,0,0.00
2013-12-22,85.1,76.4,70.4,74.0,71.3,69.0,96,85,64,30.09,30.02,11,2,0,0.00
2013-12-23,84.9,74.6,67.6,75.0,70.8,67.0,98,88,69,30.11,30.02,9,1,0,0.01
2013-12-24,76.2,68.7,65.3,74.0,65.3,58.0,97,89,75,30.11,30.04,16,3,0,0.05
2013-12-25,75.7,71.3,69.3,66.0,63.5,62.0,80,76,69,30.13,30.05,13,3,0,0.00
2013-12-26,78.2,72.8,69.3,72.0,68.6,63.0,93,87,76,30.11,30.01,11,1,0,0.00
2013-12-27,80.3,73.2,67.2,72.0,69.1,66.0,96,87,74,30.14,30.04,9,2,0,0.00
2013-12-28,78.4,75.1,73.0,72.0,70.1,68.0,89,84,78,30.13,29.96,12,5,0,0.00
2013-12-29,81.4,74.9,71.9,76.0,72.6,71.0,97,92,80,29.96,29.84,7,1,0,0.07
2013-12-30,73.9,69.2,62.5,71.0,66.6,60.0,96,91,84,30.10,29.90,8,1,0,0.01
2013-12-31,75.3,69.5,62.8,66.0,63.2,60.0,91,80,69,30.19,30.05,11,3,0,0.00
2014-1-1,77.5,72.7,67.7,73.0,69.1,64.0,96,88,74,30.14,29.98,10,2,0,0.64
2014-1-2,83.1,72.6,64.1,73.0,68.3,63.0,98,87,67,29.97,29.78,12,1,0,0.04